Time;durP1;ratioP1;P1;durP2;ratioP2;P2;SDS_P1;SDS_P2;PMS_P1;PMS_P2;Temp;Humidity;BMP_temperature;BMP_pressure;BME280_temperature;BME280_humidity;BME280_pressure;Samples;Min_cycle;Max_cycle;Signal;HPM_P1;HPM_P2
2023/11/21 00:02:15;;;;;;;;;;;;;;;;;;5075091;28;20361;-63
2023/11/21 00:04:41;;;;;;;;;;;;;;;;;;5076157;28;19909;-64
2023/11/21 00:07:07;;;;;;;;;;;;;;;;;;5069507;28;20015;-64
2023/11/21 00:09:33;;;;;;;;;;;;;;;;;;5059060;28;19923;-64
2023/11/21 00:11:59;;;;;;;;;;;;;;;;;;5063163;28;19913;-64
2023/11/21 00:14:25;;;;;;;;;;;;;;;;;;5056142;28;20330;-64
2023/11/21 00:16:51;;;;;;;;;;;;;;;;;;5055838;28;19908;-64
2023/11/21 00:19:17;;;;;;;;;;;;;;;;;;5056221;28;19919;-64
2023/11/21 00:21:44;;;;;;;;;;;;;;;;;;5060025;28;19916;-64
2023/11/21 00:24:10;;;;;;;;;;;;;;;;;;5075212;28;20038;-64
2023/11/21 00:26:39;;;;;;;;;;;;;;;;;;5059273;28;20008;-65
2023/11/21 00:29:08;;;;;;;;;;;;;;;;;;5070955;28;20007;-64
2023/11/21 00:31:34;;;;;;;;;;;;;;;;;;5071767;28;19982;-64
2023/11/21 00:33:59;;;;;;;;;;;;;;;;;;5074227;28;19951;-65
2023/11/21 00:36:26;;;;;;;;;;;;;;;;;;5088577;28;20380;-64
2023/11/21 00:38:51;;;;;;;;;;;;;;;;;;5066506;28;20444;-65
2023/11/21 00:41:17;;;;;;;;;;;;;;;;;;5062986;28;19912;-64
2023/11/21 00:43:44;;;;;;;;;;;;;;;;;;5072371;28;20008;-64
2023/11/21 00:46:10;;;;;;;;;;;;;;;;;;5065081;28;19924;-65
2023/11/21 00:48:36;;;;;;;;;;;;;;;;;;5055467;28;19908;-64
2023/11/21 00:51:01;;;;;;;;;;;;;;;;;;5064521;28;20011;-65
2023/11/21 00:53:27;;;;;;;;;;;;;;;;;;5055362;28;19916;-65
2023/11/21 00:55:56;;;;;;;;;;;;;;;;;;5066548;28;19920;-65
2023/11/21 00:58:22;;;;;;;;;;;;;;;;;;5075157;28;20280;-65
2023/11/21 01:00:48;;;;;;;;;;;;;;;;;;5069172;28;19917;-65
2023/11/21 01:03:14;;;;;;;;;;;;;;;;;;5065803;28;19966;-64
2023/11/21 01:05:40;;;;;;;;;;;;;;;;;;5075271;28;20396;-65
2023/11/21 01:08:06;;;;;;;;;;;;;;;;;;5090914;28;20387;-65
2023/11/21 01:10:34;;;;;;;;;;;;;;;;;;5071475;28;20004;-65
2023/11/21 01:12:59;;;;;;;;;;;;;;;;;;5053538;28;19913;-65
2023/11/21 01:15:28;;;;;;;;;;;;;;;;;;5066745;28;20003;-63
2023/11/21 01:17:54;;;;;;;;;;;;;;;;;;5074698;28;19916;-63
2023/11/21 01:20:20;;;;;;;;;;;;;;;;;;5059321;28;20261;-63
2023/11/21 01:22:48;;;;;;;;;;;;;;;;;;5061684;28;19912;-63
2023/11/21 01:25:15;;;;;;;;;;;;;;;;;;5074863;28;19978;-63
2023/11/21 01:27:41;;;;;;;;;;;;;;;;;;5074335;28;19920;-63
2023/11/21 01:30:08;;;;;;;;;;;;;;;;;;5071439;28;20090;-63
2023/11/21 01:32:34;;;;;;;;;;;;;;;;;;5069571;28;19919;-63
2023/11/21 01:35:00;;;;;;;;;;;;;;;;;;5073864;28;19912;-63
2023/11/21 01:37:27;;;;;;;;;;;;;;;;;;5074644;28;19961;-63
2023/11/21 01:39:54;;;;;;;;;;;;;;;;;;5094594;28;20050;-63
2023/11/21 01:42:20;;;;;;;;;;;;;;;;;;5064158;28;19913;-63
2023/11/21 01:44:46;;;;;;;;;;;;;;;;;;5054898;28;20288;-63
2023/11/21 01:47:12;;;;;;;;;;;;;;;;;;5069848;28;20007;-63
2023/11/21 01:49:38;;;;;;;;;;;;;;;;;;5072781;28;19959;-63
2023/11/21 01:52:04;;;;;;;;;;;;;;;;;;5061758;28;19966;-63
2023/11/21 01:54:31;;;;;;;;;;;;;;;;;;5054090;28;19963;-63
2023/11/21 01:56:58;;;;;;;;;;;;;;;;;;5055004;28;19916;-63
2023/11/21 01:59:24;;;;;;;;;;;;;;;;;;5079532;28;20402;-63
2023/11/21 02:01:50;;;;;;;;;;;;;;;;;;5066996;28;19962;-66
2023/11/21 02:04:16;;;;;;;;;;;;;;;;;;5076771;28;20017;-65
2023/11/21 02:06:43;;;;;;;;;;;;;;;;;;5077113;28;19916;-65
2023/11/21 02:09:09;;;;;;;;;;;;;;;;;;5073096;28;19999;-65
2023/11/21 02:11:34;;;;;;;;;;;;;;;;;;5065924;28;20007;-65
2023/11/21 02:14:00;;;;;;;;;;;;;;;;;;5070522;28;20386;-65
2023/11/21 02:16:27;;;;;;;;;;;;;;;;;;5073696;28;19909;-65
2023/11/21 02:18:52;;;;;;;;;;;;;;;;;;5073518;28;19958;-65
2023/11/21 02:21:22;;;;;;;;;;;;;;;;;;5066935;28;19939;-65
2023/11/21 02:23:47;;;;;;;;;;;;;;;;;;5054052;28;19965;-65
2023/11/21 02:26:13;;;;;;;;;;;;;;;;;;5053408;28;20007;-65
2023/11/21 02:28:39;;;;;;;;;;;;;;;;;;5056810;28;19926;-65
2023/11/21 02:31:07;;;;;;;;;;;;;;;;;;5070136;28;19927;-65
2023/11/21 02:33:33;;;;;;;;;;;;;;;;;;5072210;28;19916;-65
2023/11/21 02:35:59;;;;;;;;;;;;;;;;;;5069923;28;19912;-65
2023/11/21 02:38:25;;;;;;;;;;;;;;;;;;5091994;28;20336;-65
2023/11/21 02:40:51;;;;;;;;;;;;;;;;;;5072526;28;19917;-65
2023/11/21 02:43:17;;;;;;;;;;;;;;;;;;5053328;28;20292;-66
2023/11/21 02:45:43;;;;;;;;;;;;;;;;;;5064550;28;19951;-65
2023/11/21 02:48:09;;;;;;;;;;;;;;;;;;5071417;28;19912;-65
2023/11/21 02:50:35;;;;;;;;;;;;;;;;;;5072967;28;19959;-65
2023/11/21 02:53:01;;;;;;;;;;;;;;;;;;5057479;28;19988;-65
2023/11/21 02:55:27;;;;;;;;;;;;;;;;;;5055061;28;19920;-65
2023/11/21 02:57:53;;;;;;;;;;;;;;;;;;5063539;28;19916;-65
2023/11/21 03:00:19;;;;;;;;;;;;;;;;;;5068964;28;19951;-65
2023/11/21 03:02:45;;;;;;;;;;;;;;;;;;5060330;28;20359;-65
2023/11/21 03:05:10;;;;;;;;;;;;;;;;;;5054985;28;19908;-65
2023/11/21 03:07:36;;;;;;;;;;;;;;;;;;5073361;28;20311;-65
2023/11/21 03:10:04;;;;;;;;;;;;;;;;;;5060675;28;20007;-65
2023/11/21 03:12:30;;;;;;;;;;;;;;;;;;5058602;28;20352;-65
2023/11/21 03:14:56;;;;;;;;;;;;;;;;;;5055165;28;19912;-59
2023/11/21 03:17:22;;;;;;;;;;;;;;;;;;5052345;28;19913;-64
2023/11/21 03:19:48;;;;;;;;;;;;;;;;;;5072176;28;19914;-60
2023/11/21 03:22:14;;;;;;;;;;;;;;;;;;5056376;28;19916;-59
2023/11/21 03:24:39;;;;;;;;;;;;;;;;;;5052760;28;20369;-59
2023/11/21 03:27:05;;;;;;;;;;;;;;;;;;5064328;28;19917;-60
2023/11/21 03:29:32;;;;;;;;;;;;;;;;;;5080463;28;19919;-61
2023/11/21 03:31:58;;;;;;;;;;;;;;;;;;5065244;28;19917;-59
2023/11/21 03:34:24;;;;;;;;;;;;;;;;;;5051914;28;20368;-60
2023/11/21 03:36:50;;;;;;;;;;;;;;;;;;5067396;28;20383;-59
2023/11/21 03:39:15;;;;;;;;;;;;;;;;;;5080717;28;19967;-59
2023/11/21 03:41:41;;;;;;;;;;;;;;;;;;5070197;28;20331;-60
2023/11/21 03:44:07;;;;;;;;;;;;;;;;;;5072002;28;20014;-60
2023/11/21 03:46:33;;;;;;;;;;;;;;;;;;5072687;28;19913;-60
2023/11/21 03:48:59;;;;;;;;;;;;;;;;;;5069028;28;19919;-59
2023/11/21 03:51:25;;;;;;;;;;;;;;;;;;5066507;28;19978;-60
2023/11/21 03:53:51;;;;;;;;;;;;;;;;;;5069477;28;20281;-60
2023/11/21 03:56:17;;;;;;;;;;;;;;;;;;5052358;28;19955;-60
2023/11/21 03:58:43;;;;;;;;;;;;;;;;;;5063270;28;19955;-61
2023/11/21 04:01:09;;;;;;;;;;;;;;;;;;5067523;28;20421;-60
2023/11/21 04:03:35;;;;;;;;;;;;;;;;;;5056358;28;20299;-61
2023/11/21 04:06:01;;;;;;;;;;;;;;;;;;5070926;28;20015;-60
2023/11/21 04:08:27;;;;;;;;;;;;;;;;;;5073481;28;20023;-59
2023/11/21 04:10:53;;;;;;;;;;;;;;;;;;5052137;28;19917;-59
2023/11/21 04:13:19;;;;;;;;;;;;;;;;;;5055215;28;19978;-61
2023/11/21 04:15:45;;;;;;;;;;;;;;;;;;5060194;28;19916;-60
2023/11/21 04:18:11;;;;;;;;;;;;;;;;;;5052465;28;19923;-60
2023/11/21 04:20:37;;;;;;;;;;;;;;;;;;5052114;28;19919;-60
2023/11/21 04:23:03;;;;;;;;;;;;;;;;;;5052156;28;20361;-60
2023/11/21 04:25:29;;;;;;;;;;;;;;;;;;5067082;28;19919;-63
2023/11/21 04:27:55;;;;;;;;;;;;;;;;;;5070121;28;19921;-63
2023/11/21 04:30:21;;;;;;;;;;;;;;;;;;5054028;28;19967;-63
2023/11/21 04:32:47;;;;;;;;;;;;;;;;;;5065431;28;19912;-63
2023/11/21 04:35:12;;;;;;;;;;;;;;;;;;5073226;28;19908;-63
2023/11/21 04:37:38;;;;;;;;;;;;;;;;;;5084828;28;19912;-63
2023/11/21 04:40:06;;;;;;;;;;;;;;;;;;5060364;28;20304;-63
2023/11/21 04:42:32;;;;;;;;;;;;;;;;;;5073758;28;20387;-63
2023/11/21 04:44:58;;;;;;;;;;;;;;;;;;5055502;28;19908;-63
2023/11/21 04:47:24;;;;;;;;;;;;;;;;;;5063532;28;19917;-63
2023/11/21 04:49:50;;;;;;;;;;;;;;;;;;5058291;28;20003;-63
2023/11/21 04:52:16;;;;;;;;;;;;;;;;;;5055570;28;20372;-63
2023/11/21 04:54:42;;;;;;;;;;;;;;;;;;5068110;28;19920;-63
2023/11/21 04:57:08;;;;;;;;;;;;;;;;;;5069095;28;19913;-63
2023/11/21 04:59:34;;;;;;;;;;;;;;;;;;5068809;28;19955;-63
2023/11/21 05:02:00;;;;;;;;;;;;;;;;;;5058146;28;19917;-63
2023/11/21 05:04:27;;;;;;;;;;;;;;;;;;5077643;28;19966;-63
2023/11/21 05:06:52;;;;;;;;;;;;;;;;;;5091585;28;20030;-63
2023/11/21 05:09:18;;;;;;;;;;;;;;;;;;5083160;28;20010;-63
2023/11/21 05:11:44;;;;;;;;;;;;;;;;;;5080742;28;19923;-63
2023/11/21 05:14:10;;;;;;;;;;;;;;;;;;5075548;28;19919;-63
2023/11/21 05:16:36;;;;;;;;;;;;;;;;;;5092269;28;20318;-63
2023/11/21 05:19:03;;;;;;;;;;;;;;;;;;5074628;28;19913;-63
2023/11/21 05:21:31;;;;;;;;;;;;;;;;;;5069395;28;19924;-63
2023/11/21 05:23:57;;;;;;;;;;;;;;;;;;5085106;28;19919;-63
2023/11/21 05:26:23;;;;;;;;;;;;;;;;;;5075230;28;19956;-63
2023/11/21 05:28:49;;;;;;;;;;;;;;;;;;5072576;28;19952;-63
2023/11/21 05:31:15;;;;;;;;;;;;;;;;;;5082110;28;20372;-63
2023/11/21 05:33:40;;;;;;;;;;;;;;;;;;5068730;28;19931;-63
2023/11/21 05:36:07;;;;;;;;;;;;;;;;;;5067433;28;20393;-63
2023/11/21 05:38:33;;;;;;;;;;;;;;;;;;5068627;28;19912;-63
2023/11/21 05:40:59;;;;;;;;;;;;;;;;;;5085604;28;19966;-63
2023/11/21 05:43:25;;;;;;;;;;;;;;;;;;5085389;28;20388;-64
2023/11/21 05:45:52;;;;;;;;;;;;;;;;;;5062142;28;19944;-65
2023/11/21 05:48:17;;;;;;;;;;;;;;;;;;5081282;28;19920;-64
2023/11/21 05:50:44;;;;;;;;;;;;;;;;;;5087106;28;20391;-65
2023/11/21 05:53:11;;;;;;;;;;;;;;;;;;5066462;28;19947;-65
2023/11/21 05:55:39;;;;;;;;;;;;;;;;;;5076716;28;19920;-66
2023/11/21 05:58:05;;;;;;;;;;;;;;;;;;5074651;28;19991;-65
2023/11/21 06:00:32;;;;;;;;;;;;;;;;;;5074903;28;19999;-64
2023/11/21 06:02:58;;;;;;;;;;;;;;;;;;5073945;28;19923;-65
2023/11/21 06:05:24;;;;;;;;;;;;;;;;;;5072147;28;19966;-65
2023/11/21 06:07:50;;;;;;;;;;;;;;;;;;5084096;28;19912;-65
2023/11/21 06:10:17;;;;;;;;;;;;;;;;;;5086162;28;20014;-65
2023/11/21 06:12:43;;;;;;;;;;;;;;;;;;5081835;28;19919;-65
2023/11/21 06:15:09;;;;;;;;;;;;;;;;;;5063887;28;19913;-65
2023/11/21 06:17:39;;;;;;;;;;;;;;;;;;5073238;28;20292;-64
2023/11/21 06:20:09;;;;;;;;;;;;;;;;;;5062243;28;19967;-64
2023/11/21 06:22:35;;;;;;;;;;;;;;;;;;5093626;28;19908;-64
2023/11/21 06:25:03;;;;;;;;;;;;;;;;;;5089387;28;20335;-64
2023/11/21 06:27:29;;;;;;;;;;;;;;;;;;5093602;28;19968;-64
2023/11/21 06:29:55;;;;;;;;;;;;;;;;;;5091436;28;19920;-65
2023/11/21 06:32:22;;;;;;;;;;;;;;;;;;5085520;28;20379;-65
2023/11/21 06:34:49;;;;;;;;;;;;;;;;;;5076984;28;19952;-64
2023/11/21 06:37:15;;;;;;;;;;;;;;;;;;5089336;28;19912;-65
2023/11/21 06:39:41;;;;;;;;;;;;;;;;;;5090106;28;19912;-65
2023/11/21 06:42:07;;;;;;;;;;;;;;;;;;5085381;28;19913;-65
2023/11/21 06:44:33;;;;;;;;;;;;;;;;;;5061742;28;20406;-60
2023/11/21 06:46:59;;;;;;;;;;;;;;;;;;5066172;28;20383;-60
2023/11/21 06:49:25;;;;;;;;;;;;;;;;;;5069262;28;19913;-61
2023/11/21 06:51:51;;;;;;;;;;;;;;;;;;5086568;28;19942;-60
2023/11/21 06:54:19;;;;;;;;;;;;;;;;;;5092388;28;20299;-63
2023/11/21 06:56:44;;;;;;;;;;;;;;;;;;5093021;28;19908;-63
2023/11/21 06:59:11;;;;;;;;;;;;;;;;;;5069718;28;19959;-63
2023/11/21 07:01:39;;;;;;;;;;;;;;;;;;5070031;28;19916;-63
2023/11/21 07:04:05;;;;;;;;;;;;;;;;;;5057816;28;19913;-63
2023/11/21 07:06:31;;;;;;;;;;;;;;;;;;5076416;28;19962;-63
2023/11/21 07:08:58;;;;;;;;;;;;;;;;;;5080805;28;20351;-63
2023/11/21 07:11:25;;;;;;;;;;;;;;;;;;5083545;28;19916;-63
2023/11/21 07:13:51;;;;;;;;;;;;;;;;;;5084644;28;19912;-63
2023/11/21 07:16:18;;;;;;;;;;;;;;;;;;5075324;28;20018;-63
2023/11/21 07:18:44;;;;;;;;;;;;;;;;;;5077738;28;20387;-63
2023/11/21 07:21:11;;;;;;;;;;;;;;;;;;5081395;28;19913;-63
2023/11/21 07:23:37;;;;;;;;;;;;;;;;;;5076836;28;19934;-63
2023/11/21 07:26:08;;;;;;;;;;;;;;;;;;5092064;28;19942;-63
2023/11/21 07:28:34;;;;;;;;;;;;;;;;;;5091716;28;20291;-63
2023/11/21 07:31:03;;;;;;;;;;;;;;;;;;5088902;28;21561;-63
2023/11/21 07:33:29;;;;;;;;;;;;;;;;;;5074637;28;20368;-63
2023/11/21 07:35:55;;;;;;;;;;;;;;;;;;5071618;28;19916;-63
2023/11/21 07:38:20;;;;;;;;;;;;;;;;;;5089208;28;19915;-63
2023/11/21 07:40:46;;;;;;;;;;;;;;;;;;5090097;28;20338;-63
2023/11/21 07:43:12;;;;;;;;;;;;;;;;;;5063090;28;19987;-63
2023/11/21 07:45:38;;;;;;;;;;;;;;;;;;5077315;28;19912;-63
2023/11/21 07:48:05;;;;;;;;;;;;;;;;;;5078051;28;19919;-63
2023/11/21 07:50:30;;;;;;;;;;;;;;;;;;5075660;28;19916;-63
2023/11/21 07:52:56;;;;;;;;;;;;;;;;;;5080883;28;20297;-63
2023/11/21 07:55:22;;;;;;;;;;;;;;;;;;5082739;28;19908;-64
2023/11/21 07:57:48;;;;;;;;;;;;;;;;;;5084612;28;19912;-65
2023/11/21 08:00:15;;;;;;;;;;;;;;;;;;5076750;28;19915;-65
2023/11/21 08:02:45;;;;;;;;;;;;;;;;;;5085404;28;19912;-64
2023/11/21 08:05:11;;;;;;;;;;;;;;;;;;5077088;28;19997;-62
2023/11/21 08:07:38;;;;;;;;;;;;;;;;;;5074285;28;19974;-60
2023/11/21 08:10:04;;;;;;;;;;;;;;;;;;5088409;28;19923;-60
2023/11/21 08:12:30;;;;;;;;;;;;;;;;;;5083129;28;20390;-61
2023/11/21 08:14:56;;;;;;;;;;;;;;;;;;5082819;28;19944;-61
2023/11/21 08:17:23;;;;;;;;;;;;;;;;;;5057599;28;19991;-61
2023/11/21 08:19:51;;;;;;;;;;;;;;;;;;5088427;28;19920;-60
2023/11/21 08:22:17;;;;;;;;;;;;;;;;;;5095099;28;19915;-61
2023/11/21 08:24:43;;;;;;;;;;;;;;;;;;5081108;28;20015;-61
2023/11/21 08:27:09;;;;;;;;;;;;;;;;;;5094135;28;20011;-61
2023/11/21 08:29:36;;;;;;;;;;;;;;;;;;5091889;28;19918;-61
2023/11/21 08:32:02;;;;;;;;;;;;;;;;;;5086417;28;20389;-61
2023/11/21 08:34:28;;;;;;;;;;;;;;;;;;5084660;28;19916;-61
2023/11/21 08:36:54;;;;;;;;;;;;;;;;;;5094636;28;20417;-61
2023/11/21 08:39:20;;;;;;;;;;;;;;;;;;5086453;28;19916;-60
2023/11/21 08:41:46;;;;;;;;;;;;;;;;;;5074530;28;20062;-60
2023/11/21 08:44:11;;;;;;;;;;;;;;;;;;5079072;28;19912;-61
2023/11/21 08:46:39;;;;;;;;;;;;;;;;;;5090105;28;19908;-61
2023/11/21 08:49:06;;;;;;;;;;;;;;;;;;5066975;28;20041;-62
2023/11/21 08:51:31;;;;;;;;;;;;;;;;;;5078056;28;19917;-61
2023/11/21 08:54:00;;;;;;;;;;;;;;;;;;5077350;28;19977;-63
2023/11/21 08:56:26;;;;;;;;;;;;;;;;;;5070529;28;19965;-61
2023/11/21 08:58:52;;;;;;;;;;;;;;;;;;5075314;28;19917;-61
2023/11/21 09:01:18;;;;;;;;;;;;;;;;;;5075041;28;19927;-61
2023/11/21 09:03:44;;;;;;;;;;;;;;;;;;5076175;28;19971;-64
2023/11/21 09:06:10;;;;;;;;;;;;;;;;;;5074312;28;20007;-63
2023/11/21 09:08:36;;;;;;;;;;;;;;;;;;5071998;28;19958;-63
2023/11/21 09:11:02;;;;;;;;;;;;;;;;;;5075046;28;19919;-63
2023/11/21 09:13:29;;;;;;;;;;;;;;;;;;5090194;28;19916;-64
2023/11/21 09:15:55;;;;;;;;;;;;;;;;;;5082738;28;19920;-64
2023/11/21 09:18:21;;;;;;;;;;;;;;;;;;5074057;28;19916;-64
2023/11/21 09:20:47;;;;;;;;;;;;;;;;;;5082238;28;19995;-64
2023/11/21 09:23:13;;;;;;;;;;;;;;;;;;5074484;28;20022;-64
2023/11/21 09:25:39;;;;;;;;;;;;;;;;;;5084765;28;19908;-64
2023/11/21 09:28:08;;;;;;;;;;;;;;;;;;5086483;28;19916;-64
2023/11/21 09:30:33;;;;;;;;;;;;;;;;;;5081418;28;20329;-65
2023/11/21 09:33:00;;;;;;;;;;;;;;;;;;5087123;28;20014;-64
2023/11/21 09:35:27;;;;;;;;;;;;;;;;;;5079107;28;20003;-64
2023/11/21 09:37:53;;;;;;;;;;;;;;;;;;5070277;28;19962;-64
2023/11/21 09:40:19;;;;;;;;;;;;;;;;;;5084603;28;19908;-64
2023/11/21 09:42:47;;;;;;;;;;;;;;;;;;5083823;28;19920;-65
2023/11/21 09:45:13;;;;;;;;;;;;;;;;;;5082880;28;20368;-64
2023/11/21 09:47:39;;;;;;;;;;;;;;;;;;5077798;28;19962;-64
2023/11/21 09:50:07;;;;;;;;;;;;;;;;;;5075903;28;19924;-64
2023/11/21 09:52:33;;;;;;;;;;;;;;;;;;5078052;28;19912;-65
2023/11/21 09:55:00;;;;;;;;;;;;;;;;;;5089532;28;19916;-64
2023/11/21 09:57:26;;;;;;;;;;;;;;;;;;5081263;28;20299;-65
2023/11/21 09:59:55;;;;;;;;;;;;;;;;;;5074910;28;19948;-64
2023/11/21 10:02:21;;;;;;;;;;;;;;;;;;5070231;28;20327;-64
2023/11/21 10:04:47;;;;;;;;;;;;;;;;;;5068322;28;19947;-64
2023/11/21 10:07:15;;;;;;;;;;;;;;;;;;5068714;28;20256;-64
2023/11/21 10:09:41;;;;;;;;;;;;;;;;;;5072463;28;20279;-64
2023/11/21 10:12:08;;;;;;;;;;;;;;;;;;5079518;28;19923;-64
2023/11/21 10:14:34;;;;;;;;;;;;;;;;;;5071756;28;19999;-64
2023/11/21 10:17:02;;;;;;;;;;;;;;;;;;5074913;28;20720;-64
2023/11/21 10:19:28;;;;;;;;;;;;;;;;;;5072341;28;19968;-65
2023/11/21 10:21:54;;;;;;;;;;;;;;;;;;5071808;28;19913;-64
2023/11/21 10:24:20;;;;;;;;;;;;;;;;;;5065608;28;19917;-64
2023/11/21 10:26:48;;;;;;;;;;;;;;;;;;5080987;28;20335;-64
2023/11/21 10:29:16;;;;;;;;;;;;;;;;;;5091712;28;19912;-64
2023/11/21 10:31:43;;;;;;;;;;;;;;;;;;5076759;28;19924;-64
2023/11/21 10:34:09;;;;;;;;;;;;;;;;;;5083730;28;20310;-64
2023/11/21 10:36:35;;;;;;;;;;;;;;;;;;5089247;28;20096;-64
2023/11/21 10:39:01;;;;;;;;;;;;;;;;;;5084462;28;19920;-64
2023/11/21 10:41:27;;;;;;;;;;;;;;;;;;5081542;28;19952;-64
2023/11/21 10:43:55;;;;;;;;;;;;;;;;;;5082044;28;20376;-64
2023/11/21 10:46:21;;;;;;;;;;;;;;;;;;5085748;28;19924;-64
2023/11/21 10:48:47;;;;;;;;;;;;;;;;;;5071664;28;19912;-64
2023/11/21 10:51:13;;;;;;;;;;;;;;;;;;5089081;28;19970;-64
2023/11/21 10:53:39;;;;;;;;;;;;;;;;;;5082431;28;20398;-64
2023/11/21 10:56:06;;;;;;;;;;;;;;;;;;5092371;28;19908;-64
2023/11/21 10:58:32;;;;;;;;;;;;;;;;;;5079824;28;20447;-64
2023/11/21 11:00:58;;;;;;;;;;;;;;;;;;5074409;28;19923;-64
2023/11/21 11:03:24;;;;;;;;;;;;;;;;;;5090431;28;19990;-64
2023/11/21 11:05:51;;;;;;;;;;;;;;;;;;5092227;28;19908;-63
2023/11/21 11:08:18;;;;;;;;;;;;;;;;;;5079614;28;19922;-64
2023/11/21 11:10:46;;;;;;;;;;;;;;;;;;5092326;28;19912;-64
2023/11/21 11:13:14;;;;;;;;;;;;;;;;;;5087160;28;19908;-64
2023/11/21 11:15:40;;;;;;;;;;;;;;;;;;5071531;28;19929;-64
2023/11/21 11:18:06;;;;;;;;;;;;;;;;;;5092149;28;19908;-64
2023/11/21 11:20:33;;;;;;;;;;;;;;;;;;5081228;28;19913;-64
2023/11/21 11:22:59;;;;;;;;;;;;;;;;;;5080258;28;19912;-64
2023/11/21 11:25:24;;;;;;;;;;;;;;;;;;5091840;28;20003;-61
2023/11/21 11:27:50;;;;;;;;;;;;;;;;;;5092026;28;20002;-61
2023/11/21 11:30:16;;;;;;;;;;;;;;;;;;5078324;28;19916;-62
2023/11/21 11:32:42;;;;;;;;;;;;;;;;;;5087175;28;20005;-61
2023/11/21 11:35:08;;;;;;;;;;;;;;;;;;5080307;28;19959;-63
2023/11/21 11:37:34;;;;;;;;;;;;;;;;;;5091914;28;20415;-63
2023/11/21 11:40:00;;;;;;;;;;;;;;;;;;5064118;28;19908;-63
2023/11/21 11:42:26;;;;;;;;;;;;;;;;;;5085064;28;20010;-64
2023/11/21 11:44:52;;;;;;;;;;;;;;;;;;5072986;28;20426;-64
2023/11/21 11:47:18;;;;;;;;;;;;;;;;;;5081086;28;19992;-64
2023/11/21 11:49:45;;;;;;;;;;;;;;;;;;5076069;28;20340;-64
2023/11/21 11:52:11;;;;;;;;;;;;;;;;;;5085171;28;19919;-64
2023/11/21 11:54:38;;;;;;;;;;;;;;;;;;5085132;28;19912;-64
2023/11/21 11:57:04;;;;;;;;;;;;;;;;;;5094269;28;20326;-63
2023/11/21 11:59:30;;;;;;;;;;;;;;;;;;5090707;28;19954;-63
2023/11/21 12:01:55;;;;;;;;;;;;;;;;;;5076212;28;20003;-64
2023/11/21 12:04:23;;;;;;;;;;;;;;;;;;5095193;28;20028;-64
2023/11/21 12:06:49;;;;;;;;;;;;;;;;;;5087767;28;19960;-64
2023/11/21 12:09:15;;;;;;;;;;;;;;;;;;5074556;28;19951;-64
2023/11/21 12:11:41;;;;;;;;;;;;;;;;;;5073553;28;20326;-64
2023/11/21 12:14:07;;;;;;;;;;;;;;;;;;5080083;28;19908;-63
2023/11/21 12:16:33;;;;;;;;;;;;;;;;;;5083029;28;19912;-64
2023/11/21 12:18:59;;;;;;;;;;;;;;;;;;5088008;28;19918;-63
2023/11/21 12:21:25;;;;;;;;;;;;;;;;;;5088578;28;20380;-63
2023/11/21 12:23:51;;;;;;;;;;;;;;;;;;5095124;28;19988;-64
2023/11/21 12:26:17;;;;;;;;;;;;;;;;;;5083082;28;20287;-64
2023/11/21 12:28:43;;;;;;;;;;;;;;;;;;5075234;28;19913;-64
2023/11/21 12:31:10;;;;;;;;;;;;;;;;;;5091463;28;19924;-64
2023/11/21 12:33:36;;;;;;;;;;;;;;;;;;5091484;28;19927;-63
2023/11/21 12:36:03;;;;;;;;;;;;;;;;;;5089864;28;19912;-63
2023/11/21 12:38:30;;;;;;;;;;;;;;;;;;5094393;28;19908;-63
2023/11/21 12:40:57;;;;;;;;;;;;;;;;;;5082253;28;20509;-64
2023/11/21 12:43:24;;;;;;;;;;;;;;;;;;5094844;28;19951;-63
2023/11/21 12:45:50;;;;;;;;;;;;;;;;;;5083161;28;19915;-63
2023/11/21 12:48:22;;;;;;;;;;;;;;;;;;5092731;28;19912;-64
2023/11/21 12:50:52;;;;;;;;;;;;;;;;;;5079305;28;19920;-64
2023/11/21 12:53:19;;;;;;;;;;;;;;;;;;5077874;28;19966;-64
2023/11/21 12:55:49;;;;;;;;;;;;;;;;;;5092227;28;19916;-64
2023/11/21 12:58:15;;;;;;;;;;;;;;;;;;5091417;28;19908;-64
2023/11/21 13:00:42;;;;;;;;;;;;;;;;;;5090699;28;20011;-64
2023/11/21 13:03:08;;;;;;;;;;;;;;;;;;5090560;28;19916;-64
2023/11/21 13:05:34;;;;;;;;;;;;;;;;;;5087718;28;19916;-64
2023/11/21 13:08:02;;;;;;;;;;;;;;;;;;5067838;28;19963;-64
2023/11/21 13:10:31;;;;;;;;;;;;;;;;;;5072023;28;20011;-64
2023/11/21 13:12:58;;;;;;;;;;;;;;;;;;5080754;28;19913;-63
2023/11/21 13:15:24;;;;;;;;;;;;;;;;;;5081081;28;19913;-64
2023/11/21 13:17:51;;;;;;;;;;;;;;;;;;5077164;28;19913;-63
2023/11/21 13:20:17;;;;;;;;;;;;;;;;;;5083639;28;19912;-64
2023/11/21 13:22:43;;;;;;;;;;;;;;;;;;5079968;28;19991;-64
2023/11/21 13:25:09;;;;;;;;;;;;;;;;;;5083318;28;20368;-64
2023/11/21 13:27:36;;;;;;;;;;;;;;;;;;5079099;28;19960;-64
2023/11/21 13:30:03;;;;;;;;;;;;;;;;;;5079807;28;19929;-64
2023/11/21 13:32:32;;;;;;;;;;;;;;;;;;5076672;28;19917;-64
2023/11/21 13:34:59;;;;;;;;;;;;;;;;;;5080971;28;19965;-63
2023/11/21 13:37:28;;;;;;;;;;;;;;;;;;5075464;28;19966;-63
2023/11/21 13:39:54;;;;;;;;;;;;;;;;;;5085743;28;19912;-64
2023/11/21 13:42:23;;;;;;;;;;;;;;;;;;5093591;28;19963;-68
2023/11/21 13:44:50;;;;;;;;;;;;;;;;;;5090398;28;20372;-64
2023/11/21 13:47:16;;;;;;;;;;;;;;;;;;5081961;28;20291;-64
2023/11/21 13:49:42;;;;;;;;;;;;;;;;;;5083929;28;19952;-64
2023/11/21 13:52:11;;;;;;;;;;;;;;;;;;5072818;28;20371;-64
2023/11/21 13:54:37;;;;;;;;;;;;;;;;;;5080366;28;20467;-62
2023/11/21 13:57:05;;;;;;;;;;;;;;;;;;5083564;28;20287;-61
2023/11/21 13:59:31;;;;;;;;;;;;;;;;;;5076065;28;19927;-62
2023/11/21 14:01:59;;;;;;;;;;;;;;;;;;5090703;28;20359;-62
2023/11/21 14:04:43;;;;;;;;;;;;;;;;;;5076232;28;19917;-62
2023/11/21 14:09:54;;;;;;;;;;;;;;;;;;5078721;28;19919;-62
2023/11/21 14:12:19;;;;;;;;;;;;;;;;;;5072273;28;19920;-62
2023/11/21 14:14:47;;;;;;;;;;;;;;;;;;5071447;28;19912;-61
2023/11/21 14:17:13;;;;;;;;;;;;;;;;;;5083424;28;20390;-62
2023/11/21 14:19:43;;;;;;;;;;;;;;;;;;5075544;28;20020;-63
2023/11/21 14:22:09;;;;;;;;;;;;;;;;;;5075319;28;20399;-63
2023/11/21 14:24:35;;;;;;;;;;;;;;;;;;5080872;28;19980;-62
2023/11/21 14:27:01;;;;;;;;;;;;;;;;;;5078601;28;19916;-63
2023/11/21 14:29:29;;;;;;;;;;;;;;;;;;5085501;28;19919;-63
2023/11/21 14:31:57;;;;;;;;;;;;;;;;;;5073143;28;19921;-62
2023/11/21 14:34:23;;;;;;;;;;;;;;;;;;5072167;28;20399;-62
2023/11/21 14:36:49;;;;;;;;;;;;;;;;;;5080830;28;19916;-62
2023/11/21 14:39:26;;;;;;;;;;;;;;;;;;5073790;28;20015;-63
2023/11/21 14:41:53;;;;;;;;;;;;;;;;;;5073429;28;20378;-62
2023/11/21 14:44:19;;;;;;;;;;;;;;;;;;5074037;28;19928;-62
2023/11/21 14:46:46;;;;;;;;;;;;;;;;;;5073246;28;19935;-62
2023/11/21 14:49:23;;;;;;;;;;;;;;;;;;5079120;28;19955;-62
2023/11/21 14:52:00;;;;;;;;;;;;;;;;;;5071990;28;20374;-62
2023/11/21 14:54:39;;;;;;;;;;;;;;;;;;5081623;28;20017;-62
2023/11/21 14:57:10;;;;;;;;;;;;;;;;;;5081831;28;19913;-63
2023/11/21 14:59:36;;;;;;;;;;;;;;;;;;5084186;28;20352;-63
2023/11/21 15:02:14;;;;;;;;;;;;;;;;;;5064427;28;19947;-62
2023/11/21 15:04:42;;;;;;;;;;;;;;;;;;5072925;28;19912;-62
2023/11/21 15:07:07;;;;;;;;;;;;;;;;;;5065750;28;19958;-62
2023/11/21 15:12:11;;;;;;;;;;;;;;;;;;5090938;28;20363;-62
2023/11/21 15:14:37;;;;;;;;;;;;;;;;;;5084395;28;20764;-62
2023/11/21 15:17:03;;;;;;;;;;;;;;;;;;5092326;28;19998;-62
2023/11/21 15:19:31;;;;;;;;;;;;;;;;;;5077865;28;19920;-62
2023/11/21 15:21:58;;;;;;;;;;;;;;;;;;5071852;28;20376;-62
2023/11/21 15:24:24;;;;;;;;;;;;;;;;;;5079158;28;19916;-62
2023/11/21 15:26:50;;;;;;;;;;;;;;;;;;5072852;28;19917;-62
2023/11/21 15:29:16;;;;;;;;;;;;;;;;;;5073449;28;19915;-62
2023/11/21 15:31:48;;;;;;;;;;;;;;;;;;5083577;28;19950;-62
2023/11/21 15:34:14;;;;;;;;;;;;;;;;;;5081483;28;19920;-63
2023/11/21 15:36:39;;;;;;;;;;;;;;;;;;5081475;28;19908;-62
2023/11/21 15:39:07;;;;;;;;;;;;;;;;;;5089854;28;20291;-63
2023/11/21 15:41:33;;;;;;;;;;;;;;;;;;5074873;28;19995;-62
2023/11/21 15:43:59;;;;;;;;;;;;;;;;;;5089187;28;19923;-62
2023/11/21 15:46:25;;;;;;;;;;;;;;;;;;5077452;28;19942;-62
2023/11/21 15:48:54;;;;;;;;;;;;;;;;;;5079724;28;19916;-62
2023/11/21 15:51:20;;;;;;;;;;;;;;;;;;5075475;28;19917;-62
2023/11/21 15:53:46;;;;;;;;;;;;;;;;;;5079371;28;19943;-63
2023/11/21 15:56:12;;;;;;;;;;;;;;;;;;5092463;28;19912;-63
2023/11/21 15:58:42;;;;;;;;;;;;;;;;;;5077784;28;19923;-62
2023/11/21 16:01:09;;;;;;;;;;;;;;;;;;5082657;28;19973;-63
2023/11/21 16:03:35;;;;;;;;;;;;;;;;;;5072254;28;19912;-62
2023/11/21 16:06:03;;;;;;;;;;;;;;;;;;5069957;28;19978;-63
2023/11/21 16:08:29;;;;;;;;;;;;;;;;;;5074402;28;20007;-63
2023/11/21 16:10:55;;;;;;;;;;;;;;;;;;5073238;28;19919;-63
2023/11/21 16:13:21;;;;;;;;;;;;;;;;;;5078171;28;19916;-63
2023/11/21 16:15:47;;;;;;;;;;;;;;;;;;5073532;28;20210;-63
2023/11/21 16:18:13;;;;;;;;;;;;;;;;;;5072531;28;19918;-63
2023/11/21 16:20:39;;;;;;;;;;;;;;;;;;5081261;28;19922;-63
2023/11/21 16:23:05;;;;;;;;;;;;;;;;;;5070135;28;20368;-62
2023/11/21 16:25:31;;;;;;;;;;;;;;;;;;5077291;28;19943;-63
2023/11/21 16:28:03;;;;;;;;;;;;;;;;;;5085495;28;20295;-63
2023/11/21 16:30:30;;;;;;;;;;;;;;;;;;5077321;28;19924;-62
2023/11/21 16:32:56;;;;;;;;;;;;;;;;;;5054592;28;19912;-62
2023/11/21 16:35:22;;;;;;;;;;;;;;;;;;5074953;28;19955;-62
2023/11/21 16:37:49;;;;;;;;;;;;;;;;;;5072260;28;19924;-63
2023/11/21 16:40:14;;;;;;;;;;;;;;;;;;5073213;28;20965;-63
2023/11/21 16:42:40;;;;;;;;;;;;;;;;;;5075818;28;19940;-62
2023/11/21 16:45:07;;;;;;;;;;;;;;;;;;5087207;28;19958;-62
2023/11/21 16:47:33;;;;;;;;;;;;;;;;;;5061011;28;20250;-64